sensor_id;sensor_type;location;lat;lon;timestamp;pressure;altitude;pressure_sealevel;temperature;humidity
3697;BME280;60662;48.810;8.872;2022-10-18T07:38:48;97478.91;;;15.68;79.29
3697;BME280;60662;48.810;8.872;2022-10-18T08:48:53;97539.69;;;23.72;55.01
3697;BME280;60662;48.810;8.872;2022-10-18T08:50:17;97535.59;;;23.68;54.61
3697;BME280;60662;48.810;8.872;2022-10-18T08:51:34;97536.03;;;22.64;57.02
3697;BME280;60662;48.810;8.872;2022-10-18T09:20:58;97561.16;;;28.86;44.48
3697;BME280;60662;48.810;8.872;2022-10-18T09:22:24;97557.81;;;29.35;42.98
3697;BME280;60662;48.810;8.872;2022-10-18T09:23:45;97557.84;;;29.84;43.14
3697;BME280;60662;48.810;8.872;2022-10-18T09:24:59;97570.16;;;29.11;44.36
3697;BME280;60662;48.810;8.872;2022-10-18T09:26:16;97564.38;;;28.55;44.78
3697;BME280;60662;48.810;8.872;2022-10-18T09:27:21;97563.03;;;28.93;44.55
3697;BME280;60662;48.810;8.872;2022-10-18T09:35:15;97568.56;;;31.06;40.38
3697;BME280;60662;48.810;8.872;2022-10-18T09:36:24;97556.75;;;30.59;41.13
3697;BME280;60662;48.810;8.872;2022-10-18T09:37:29;97560.28;;;30.60;41.32
3697;BME280;60662;48.810;8.872;2022-10-18T09:38:43;97565.94;;;31.21;39.98
3697;BME280;60662;48.810;8.872;2022-10-18T09:39:47;97556.13;;;30.89;40.19
3697;BME280;60662;48.810;8.872;2022-10-18T09:41:01;97566.13;;;31.20;40.12
3697;BME280;60662;48.810;8.872;2022-10-18T09:43:45;97573.56;;;30.70;41.29
3697;BME280;60662;48.810;8.872;2022-10-18T09:45:25;97567.34;;;30.69;41.27
3697;BME280;60662;48.810;8.872;2022-10-18T09:46:32;97566.34;;;31.02;40.32
3697;BME280;60662;48.810;8.872;2022-10-18T09:48:58;97571.19;;;31.15;40.31
3697;BME280;60662;48.810;8.872;2022-10-18T09:49:35;97557.38;;;31.18;40.28
3697;BME280;60662;48.810;8.872;2022-10-18T09:50:44;97563.72;;;31.80;39.29
3697;BME280;60662;48.810;8.872;2022-10-18T09:51:50;97566.88;;;31.83;38.63
3697;BME280;60662;48.810;8.872;2022-10-18T09:53:07;97564.84;;;31.62;38.73
3697;BME280;60662;48.810;8.872;2022-10-18T09:54:45;97565.47;;;31.41;38.88
3697;BME280;60662;48.810;8.872;2022-10-18T09:55:58;97558.41;;;31.40;38.42
3697;BME280;60662;48.810;8.872;2022-10-18T09:57:39;97562.84;;;31.56;38.27
3697;BME280;60662;48.810;8.872;2022-10-18T09:59:46;97568.84;;;31.12;39.87
3697;BME280;60662;48.810;8.872;2022-10-18T10:00:50;97548.28;;;31.65;38.75
3697;BME280;60662;48.810;8.872;2022-10-18T10:01:51;97561.50;;;31.98;38.53
3697;BME280;60662;48.810;8.872;2022-10-18T10:02:53;97565.56;;;32.17;37.95
3697;BME280;60662;48.810;8.872;2022-10-18T10:03:55;97559.19;;;31.95;37.97
3697;BME280;60662;48.810;8.872;2022-10-18T10:04:56;97566.34;;;31.41;39.26
3697;BME280;60662;48.810;8.872;2022-10-18T10:06:14;97564.72;;;31.55;38.61
3697;BME280;60662;48.810;8.872;2022-10-18T10:07:19;97563.13;;;32.07;37.77
3697;BME280;60662;48.810;8.872;2022-10-18T10:08:31;97559.75;;;31.04;39.16
3697;BME280;60662;48.810;8.872;2022-10-18T10:10:26;97561.69;;;30.87;38.81
3697;BME280;60662;48.810;8.872;2022-10-18T10:11:02;97557.25;;;31.11;39.37
3697;BME280;60662;48.810;8.872;2022-10-18T10:12:03;97563.13;;;30.67;40.51
3697;BME280;60662;48.810;8.872;2022-10-18T10:13:19;97562.44;;;31.13;39.39
3697;BME280;60662;48.810;8.872;2022-10-18T10:14:28;97567.53;;;31.39;39.22
3697;BME280;60662;48.810;8.872;2022-10-18T10:15:31;97566.69;;;31.07;39.09
3697;BME280;60662;48.810;8.872;2022-10-18T10:17:04;97567.97;;;29.99;40.41
3697;BME280;60662;48.810;8.872;2022-10-18T10:18:30;97567.66;;;30.74;40.37
3697;BME280;60662;48.810;8.872;2022-10-18T10:19:56;97566.78;;;30.82;39.95
3697;BME280;60662;48.810;8.872;2022-10-18T10:21:04;97565.59;;;30.85;39.57
3697;BME280;60662;48.810;8.872;2022-10-18T10:22:11;97568.16;;;30.70;40.56
3697;BME280;60662;48.810;8.872;2022-10-18T10:23:24;97565.50;;;31.01;39.65
3697;BME280;60662;48.810;8.872;2022-10-18T10:24:39;97558.97;;;30.39;39.83
3697;BME280;60662;48.810;8.872;2022-10-18T10:25:49;97565.19;;;30.56;39.59
3697;BME280;60662;48.810;8.872;2022-10-18T10:26:58;97551.97;;;30.13;40.65
3697;BME280;60662;48.810;8.872;2022-10-18T10:28:06;97566.22;;;30.30;40.33
3697;BME280;60662;48.810;8.872;2022-10-18T10:30:47;97566.19;;;30.47;41.99
3697;BME280;60662;48.810;8.872;2022-10-18T10:32:03;97572.28;;;30.97;41.79
3697;BME280;60662;48.810;8.872;2022-10-18T10:33:05;97561.75;;;31.42;40.43
3697;BME280;60662;48.810;8.872;2022-10-18T10:35:35;97558.75;;;32.06;39.84
3697;BME280;60662;48.810;8.872;2022-10-18T10:36:57;97567.78;;;31.75;39.23
3697;BME280;60662;48.810;8.872;2022-10-18T10:37:59;97571.66;;;31.26;41.06
3697;BME280;60662;48.810;8.872;2022-10-18T10:39:11;97558.41;;;31.86;39.06
3697;BME280;60662;48.810;8.872;2022-10-18T10:40:39;97575.88;;;32.14;39.46
3697;BME280;60662;48.810;8.872;2022-10-18T10:42:10;97573.25;;;33.03;38.48
3697;BME280;60662;48.810;8.872;2022-10-18T10:43:18;97574.38;;;33.09;38.14
3697;BME280;60662;48.810;8.872;2022-10-18T10:44:53;97571.56;;;32.43;38.78
3697;BME280;60662;48.810;8.872;2022-10-18T10:47:05;97567.19;;;31.88;38.64
3697;BME280;60662;48.810;8.872;2022-10-18T10:48:13;97568.84;;;31.89;39.04
3697;BME280;60662;48.810;8.872;2022-10-18T10:49:19;97574.97;;;32.06;38.91
3697;BME280;60662;48.810;8.872;2022-10-18T10:51:09;97565.47;;;31.41;39.13
3697;BME280;60662;48.810;8.872;2022-10-18T10:52:23;97568.38;;;31.63;38.91
3697;BME280;60662;48.810;8.872;2022-10-18T10:53:36;97558.16;;;31.26;38.89
3697;BME280;60662;48.810;8.872;2022-10-18T10:54:38;97560.53;;;31.76;39.83
3697;BME280;60662;48.810;8.872;2022-10-18T10:55:53;97552.69;;;30.72;40.19
3697;BME280;60662;48.810;8.872;2022-10-18T10:57:15;97555.66;;;31.25;39.90
3697;BME280;60662;48.810;8.872;2022-10-18T11:05:25;97562.22;;;30.10;41.44
3697;BME280;60662;48.810;8.872;2022-10-18T11:06:42;97556.00;;;30.82;40.43
3697;BME280;60662;48.810;8.872;2022-10-18T11:07:45;97546.34;;;30.48;41.85
3697;BME280;60662;48.810;8.872;2022-10-18T11:08:47;97548.72;;;30.26;40.88
3697;BME280;60662;48.810;8.872;2022-10-18T11:10:00;97554.31;;;29.59;40.98
3697;BME280;60662;48.810;8.872;2022-10-18T11:16:31;97553.75;;;28.45;42.31
3697;BME280;60662;48.810;8.872;2022-10-18T11:18:42;97551.72;;;26.76;45.26
3697;BME280;60662;48.810;8.872;2022-10-18T11:20:02;97561.63;;;27.94;44.17
3697;BME280;60662;48.810;8.872;2022-10-18T11:21:17;97550.41;;;28.51;43.06
3697;BME280;60662;48.810;8.872;2022-10-18T11:22:23;97555.88;;;27.52;44.30
3697;BME280;60662;48.810;8.872;2022-10-18T11:23:34;97557.69;;;28.32;43.85
3697;BME280;60662;48.810;8.872;2022-10-18T11:24:41;97556.78;;;28.24;43.44
3697;BME280;60662;48.810;8.872;2022-10-18T11:25:45;97536.06;;;27.63;44.19
3697;BME280;60662;48.810;8.872;2022-10-18T11:27:00;97528.88;;;27.00;45.11
3697;BME280;60662;48.810;8.872;2022-10-18T11:28:15;97548.78;;;26.97;45.64
3697;BME280;60662;48.810;8.872;2022-10-18T11:29:28;97555.63;;;27.10;46.05
3697;BME280;60662;48.810;8.872;2022-10-18T11:30:44;97548.75;;;27.79;44.93
3697;BME280;60662;48.810;8.872;2022-10-18T11:33:04;97543.94;;;27.47;44.86
3697;BME280;60662;48.810;8.872;2022-10-18T11:33:57;97562.63;;;27.75;44.94
3697;BME280;60662;48.810;8.872;2022-10-18T11:35:15;97552.81;;;27.83;45.76
3697;BME280;60662;48.810;8.872;2022-10-18T11:36:32;97558.31;;;28.26;44.89
3697;BME280;60662;48.810;8.872;2022-10-18T11:46:56;97570.56;;;28.55;44.90
3697;BME280;60662;48.810;8.872;2022-10-18T11:48:37;97557.31;;;26.83;46.05
3697;BME280;60662;48.810;8.872;2022-10-18T11:53:04;97553.81;;;27.82;45.30
3697;BME280;60662;48.810;8.872;2022-10-18T11:54:22;97563.25;;;27.68;45.12
3697;BME280;60662;48.810;8.872;2022-10-18T11:57:13;97527.31;;;27.61;44.93
3697;BME280;60662;48.810;8.872;2022-10-18T12:05:09;97528.56;;;29.40;43.86
3697;BME280;60662;48.810;8.872;2022-10-18T12:06:33;97542.56;;;29.60;42.88
3697;BME280;60662;48.810;8.872;2022-10-18T12:07:45;97544.22;;;29.61;42.85
3697;BME280;60662;48.810;8.872;2022-10-18T12:08:57;97542.22;;;29.55;42.98
3697;BME280;60662;48.810;8.872;2022-10-18T12:10:03;97538.31;;;29.32;44.08
3697;BME280;60662;48.810;8.872;2022-10-18T12:11:19;97553.50;;;28.99;44.78
3697;BME280;60662;48.810;8.872;2022-10-18T12:14:46;97537.50;;;28.89;44.78
3697;BME280;60662;48.810;8.872;2022-10-18T12:15:50;97531.25;;;29.31;43.63
3697;BME280;60662;48.810;8.872;2022-10-18T12:16:54;97543.44;;;29.09;44.49
3697;BME280;60662;48.810;8.872;2022-10-18T12:18:22;97540.78;;;28.40;45.07
3697;BME280;60662;48.810;8.872;2022-10-18T12:19:26;97523.50;;;28.43;45.23
3697;BME280;60662;48.810;8.872;2022-10-18T12:20:34;97533.34;;;29.11;44.36
3697;BME280;60662;48.810;8.872;2022-10-18T12:21:37;97526.53;;;29.42;43.66
3697;BME280;60662;48.810;8.872;2022-10-18T12:22:44;97535.78;;;29.39;44.08
3697;BME280;60662;48.810;8.872;2022-10-18T12:24:54;97530.75;;;28.50;45.08
3697;BME280;60662;48.810;8.872;2022-10-18T12:26:00;97532.53;;;28.33;45.07
3697;BME280;60662;48.810;8.872;2022-10-18T12:32:11;97541.25;;;29.05;44.11
3697;BME280;60662;48.810;8.872;2022-10-18T12:33:18;97532.13;;;28.89;44.15
3697;BME280;60662;48.810;8.872;2022-10-18T12:34:53;97536.66;;;29.64;43.25
3697;BME280;60662;48.810;8.872;2022-10-18T12:45:18;97542.19;;;28.52;45.52
3697;BME280;60662;48.810;8.872;2022-10-18T12:46:20;97538.97;;;28.41;45.89
3697;BME280;60662;48.810;8.872;2022-10-18T12:47:24;97523.50;;;28.69;45.02
3697;BME280;60662;48.810;8.872;2022-10-18T12:49:37;97536.13;;;28.50;46.00
3697;BME280;60662;48.810;8.872;2022-10-18T12:50:44;97530.91;;;28.83;44.93
3697;BME280;60662;48.810;8.872;2022-10-18T12:51:56;97536.13;;;28.77;44.70
3697;BME280;60662;48.810;8.872;2022-10-18T12:53:23;97534.81;;;28.89;44.42
3697;BME280;60662;48.810;8.872;2022-10-18T12:54:38;97535.81;;;28.88;45.07
3697;BME280;60662;48.810;8.872;2022-10-18T12:55:42;97532.78;;;28.83;44.50
3697;BME280;60662;48.810;8.872;2022-10-18T12:56:49;97541.97;;;29.23;43.51
3697;BME280;60662;48.810;8.872;2022-10-18T13:10:36;97537.97;;;28.76;44.15
3697;BME280;60662;48.810;8.872;2022-10-18T13:11:38;97534.84;;;28.63;44.46
3697;BME280;60662;48.810;8.872;2022-10-18T13:14:06;97532.88;;;27.68;47.07
3697;BME280;60662;48.810;8.872;2022-10-18T13:34:35;97517.34;;;25.77;51.47
3697;BME280;60662;48.810;8.872;2022-10-18T13:35:49;97527.72;;;25.89;50.97
3697;BME280;60662;48.810;8.872;2022-10-18T13:37:00;97520.78;;;26.54;49.56
3697;BME280;60662;48.810;8.872;2022-10-18T13:38:02;97521.47;;;27.12;48.63
3697;BME280;60662;48.810;8.872;2022-10-18T13:39:18;97523.38;;;26.73;49.59
3697;BME280;60662;48.810;8.872;2022-10-18T13:40:22;97515.25;;;26.65;49.87
3697;BME280;60662;48.810;8.872;2022-10-18T13:41:31;97504.53;;;26.28;49.59
3697;BME280;60662;48.810;8.872;2022-10-18T13:42:36;97519.97;;;26.71;48.99
3697;BME280;60662;48.810;8.872;2022-10-18T13:47:36;97502.75;;;27.48;46.39
3697;BME280;60662;48.810;8.872;2022-10-18T13:50:41;97528.38;;;26.86;47.68
3697;BME280;60662;48.810;8.872;2022-10-18T13:53:36;97526.38;;;27.34;47.26
3697;BME280;60662;48.810;8.872;2022-10-18T14:01:36;97535.09;;;25.38;53.57
3697;BME280;60662;48.810;8.872;2022-10-18T14:06:49;97534.91;;;24.08;56.84
3697;BME280;60662;48.810;8.872;2022-10-18T14:07:58;97534.53;;;24.12;57.09
3697;BME280;60662;48.810;8.872;2022-10-18T14:09:17;97515.53;;;23.85;57.21
3697;BME280;60662;48.810;8.872;2022-10-18T14:10:59;97534.16;;;23.96;57.68
3697;BME280;60662;48.810;8.872;2022-10-18T14:12:13;97526.63;;;24.01;57.75
3697;BME280;60662;48.810;8.872;2022-10-18T14:13:22;97541.63;;;24.02;57.35
3697;BME280;60662;48.810;8.872;2022-10-18T14:15:35;97531.38;;;24.07;57.62
3697;BME280;60662;48.810;8.872;2022-10-18T14:16:47;97544.94;;;24.16;57.62
3697;BME280;60662;48.810;8.872;2022-10-18T14:17:52;97545.69;;;23.85;58.22
3697;BME280;60662;48.810;8.872;2022-10-18T14:19:15;97513.81;;;24.26;56.82
3697;BME280;60662;48.810;8.872;2022-10-18T14:20:27;97542.88;;;24.60;55.64
3697;BME280;60662;48.810;8.872;2022-10-18T14:21:37;97529.69;;;25.09;56.02
3697;BME280;60662;48.810;8.872;2022-10-18T14:23:04;97546.13;;;25.04;55.10
3697;BME280;60662;48.810;8.872;2022-10-18T14:24:19;97527.47;;;24.73;55.12
3697;BME280;60662;48.810;8.872;2022-10-18T14:25:28;97523.13;;;24.41;56.01
3697;BME280;60662;48.810;8.872;2022-10-18T14:26:29;97549.09;;;23.87;57.74
3697;BME280;60662;48.810;8.872;2022-10-18T14:27:33;97538.78;;;23.61;58.23
3697;BME280;60662;48.810;8.872;2022-10-18T14:28:35;97530.50;;;23.11;59.78
3697;BME280;60662;48.810;8.872;2022-10-18T14:30:29;97546.56;;;23.32;59.54
3697;BME280;60662;48.810;8.872;2022-10-18T14:31:31;97535.16;;;24.05;58.48
3697;BME280;60662;48.810;8.872;2022-10-18T14:32:33;97535.72;;;23.99;57.77
3697;BME280;60662;48.810;8.872;2022-10-18T14:34:42;97532.50;;;23.62;58.54
3697;BME280;60662;48.810;8.872;2022-10-18T14:36:43;97529.13;;;23.28;59.55
3697;BME280;60662;48.810;8.872;2022-10-18T14:45:17;97528.53;;;22.69;60.92
3697;BME280;60662;48.810;8.872;2022-10-18T14:46:22;97535.00;;;22.99;60.00
3697;BME280;60662;48.810;8.872;2022-10-18T14:47:29;97536.81;;;23.42;59.52
3697;BME280;60662;48.810;8.872;2022-10-18T14:48:31;97548.47;;;23.62;59.36
3697;BME280;60662;48.810;8.872;2022-10-18T14:49:33;97533.84;;;22.69;62.31
3697;BME280;60662;48.810;8.872;2022-10-18T14:57:04;97539.69;;;23.18;58.83
3697;BME280;60662;48.810;8.872;2022-10-18T14:58:14;97518.69;;;22.92;59.23
3697;BME280;60662;48.810;8.872;2022-10-18T14:59:21;97525.53;;;23.06;59.13
3697;BME280;60662;48.810;8.872;2022-10-18T15:00:44;97542.97;;;23.22;59.69
3697;BME280;60662;48.810;8.872;2022-10-18T15:01:55;97546.50;;;23.76;58.67
3697;BME280;60662;48.810;8.872;2022-10-18T15:02:57;97545.38;;;24.00;58.27
3697;BME280;60662;48.810;8.872;2022-10-18T15:04:07;97545.00;;;24.35;57.36
3697;BME280;60662;48.810;8.872;2022-10-18T15:06:18;97540.81;;;23.90;58.42
3697;BME280;60662;48.810;8.872;2022-10-18T15:07:19;97539.78;;;23.60;59.47
3697;BME280;60662;48.810;8.872;2022-10-18T15:15:06;97531.91;;;22.60;63.11
3697;BME280;60662;48.810;8.872;2022-10-18T15:16:16;97545.78;;;22.18;64.31
3697;BME280;60662;48.810;8.872;2022-10-18T15:17:26;97537.56;;;21.98;64.92
3697;BME280;60662;48.810;8.872;2022-10-18T15:18:29;97540.47;;;21.95;65.23
3697;BME280;60662;48.810;8.872;2022-10-18T15:19:36;97546.63;;;21.96;65.18
3697;BME280;60662;48.810;8.872;2022-10-18T15:20:43;97542.88;;;21.98;65.59
3697;BME280;60662;48.810;8.872;2022-10-18T15:22:02;97553.66;;;21.61;66.33
3697;BME280;60662;48.810;8.872;2022-10-18T15:23:28;97549.88;;;21.28;67.44
3697;BME280;60662;48.810;8.872;2022-10-18T15:24:34;97546.22;;;21.18;67.67
3697;BME280;60662;48.810;8.872;2022-10-18T15:25:36;97550.09;;;21.25;67.68
3697;BME280;60662;48.810;8.872;2022-10-18T15:26:42;97550.78;;;21.16;67.87
3697;BME280;60662;48.810;8.872;2022-10-18T15:28:02;97552.03;;;20.86;68.96
3697;BME280;60662;48.810;8.872;2022-10-18T15:29:04;97537.44;;;21.04;68.45
3697;BME280;60662;48.810;8.872;2022-10-18T15:30:14;97544.06;;;20.86;69.10
3697;BME280;60662;48.810;8.872;2022-10-18T15:31:27;97550.81;;;20.79;69.37
3697;BME280;60662;48.810;8.872;2022-10-18T15:39:18;97540.66;;;20.21;71.78
3697;BME280;60662;48.810;8.872;2022-10-18T15:41:48;97537.47;;;20.29;71.46
3697;BME280;60662;48.810;8.872;2022-10-18T15:42:52;97539.72;;;19.96;72.30
3697;BME280;60662;48.810;8.872;2022-10-18T15:50:41;97532.81;;;20.95;69.30
3697;BME280;60662;48.810;8.872;2022-10-18T15:51:48;97536.47;;;21.06;68.68
3697;BME280;60662;48.810;8.872;2022-10-18T15:52:49;97529.66;;;21.14;68.17
3697;BME280;60662;48.810;8.872;2022-10-18T15:53:52;97514.63;;;21.02;68.70
3697;BME280;60662;48.810;8.872;2022-10-18T15:54:55;97524.47;;;21.00;68.82
3697;BME280;60662;48.810;8.872;2022-10-18T16:01:06;97540.81;;;20.56;70.39
3697;BME280;60662;48.810;8.872;2022-10-18T16:02:17;97534.09;;;20.39;71.04
3697;BME280;60662;48.810;8.872;2022-10-18T16:03:19;97524.22;;;20.29;70.60
3697;BME280;60662;48.810;8.872;2022-10-18T16:04:27;97544.28;;;20.33;71.17
3697;BME280;60662;48.810;8.872;2022-10-18T16:05:29;97549.56;;;20.20;71.61
3697;BME280;60662;48.810;8.872;2022-10-18T16:06:31;97547.44;;;20.12;71.71
3697;BME280;60662;48.810;8.872;2022-10-18T16:14:03;97547.72;;;19.69;73.15
3697;BME280;60662;48.810;8.872;2022-10-18T16:15:05;97538.91;;;19.55;73.56
3697;BME280;60662;48.810;8.872;2022-10-18T16:16:11;97539.63;;;19.57;73.65
3697;BME280;60662;48.810;8.872;2022-10-18T16:17:18;97544.81;;;19.59;73.92
3697;BME280;60662;48.810;8.872;2022-10-18T16:18:20;97539.44;;;19.48;74.20
3697;BME280;60662;48.810;8.872;2022-10-18T16:19:22;97552.34;;;19.52;73.86
3697;BME280;60662;48.810;8.872;2022-10-18T16:20:24;97551.16;;;19.44;73.88
3697;BME280;60662;48.810;8.872;2022-10-18T16:21:36;97554.00;;;19.40;74.33
3697;BME280;60662;48.810;8.872;2022-10-18T16:22:41;97555.91;;;19.38;74.09
3697;BME280;60662;48.810;8.872;2022-10-18T16:23:43;97559.94;;;19.31;74.55
3697;BME280;60662;48.810;8.872;2022-10-18T16:24:45;97557.47;;;19.28;74.78
3697;BME280;60662;48.810;8.872;2022-10-18T16:37:08;97533.41;;;18.91;75.32
3697;BME280;60662;48.810;8.872;2022-10-18T16:38:28;97546.25;;;18.97;75.92
3697;BME280;60662;48.810;8.872;2022-10-18T16:39:34;97554.34;;;18.94;76.39
3697;BME280;60662;48.810;8.872;2022-10-18T16:40:35;97541.81;;;18.83;76.35
3697;BME280;60662;48.810;8.872;2022-10-18T16:41:41;97541.47;;;18.88;75.84
3697;BME280;60662;48.810;8.872;2022-10-18T16:42:47;97543.28;;;18.87;75.80
